sensor_id;sensor_type;location;lat;lon;timestamp;temperature;humidity
35127;DHT22;21300;52.006;5.798;2022-10-17T00:01:02;14.10;93.30
35127;DHT22;21300;52.006;5.798;2022-10-17T00:03:27;14.10;93.30
35127;DHT22;21300;52.006;5.798;2022-10-17T00:05:53;14.00;93.40
35127;DHT22;21300;52.006;5.798;2022-10-17T00:08:19;14.00;93.30
35127;DHT22;21300;52.006;5.798;2022-10-17T00:10:45;14.00;93.30
35127;DHT22;21300;52.006;5.798;2022-10-17T00:13:10;14.00;93.30
35127;DHT22;21300;52.006;5.798;2022-10-17T00:15:37;14.00;93.70
35127;DHT22;21300;52.006;5.798;2022-10-17T00:18:03;14.00;93.30
35127;DHT22;21300;52.006;5.798;2022-10-17T00:20:28;14.00;93.30
35127;DHT22;21300;52.006;5.798;2022-10-17T00:22:57;14.00;93.40
35127;DHT22;21300;52.006;5.798;2022-10-17T00:25:23;14.00;93.40
35127;DHT22;21300;52.006;5.798;2022-10-17T00:27:48;14.00;93.40
35127;DHT22;21300;52.006;5.798;2022-10-17T00:30:15;13.90;93.40
35127;DHT22;21300;52.006;5.798;2022-10-17T00:32:41;14.00;93.40
35127;DHT22;21300;52.006;5.798;2022-10-17T00:35:08;14.00;93.50
35127;DHT22;21300;52.006;5.798;2022-10-17T00:37:33;14.00;93.40
35127;DHT22;21300;52.006;5.798;2022-10-17T00:39:59;14.00;93.40
35127;DHT22;21300;52.006;5.798;2022-10-17T00:42:25;14.00;93.50
35127;DHT22;21300;52.006;5.798;2022-10-17T00:45:16;13.90;93.40
35127;DHT22;21300;52.006;5.798;2022-10-17T00:47:47;13.90;93.50
35127;DHT22;21300;52.006;5.798;2022-10-17T00:50:14;13.90;93.50
35127;DHT22;21300;52.006;5.798;2022-10-17T00:52:40;13.90;93.50
35127;DHT22;21300;52.006;5.798;2022-10-17T00:57:35;13.90;93.60
35127;DHT22;21300;52.006;5.798;2022-10-17T01:00:04;13.90;93.60
35127;DHT22;21300;52.006;5.798;2022-10-17T01:02:30;13.90;93.60
35127;DHT22;21300;52.006;5.798;2022-10-17T01:04:56;13.90;93.80
35127;DHT22;21300;52.006;5.798;2022-10-17T01:07:24;13.90;93.70
35127;DHT22;21300;52.006;5.798;2022-10-17T01:09:51;13.90;93.70
35127;DHT22;21300;52.006;5.798;2022-10-17T01:31:54;13.80;93.80
35127;DHT22;21300;52.006;5.798;2022-10-17T01:34:40;13.80;93.80
35127;DHT22;21300;52.006;5.798;2022-10-17T01:40:14;13.80;93.70
35127;DHT22;21300;52.006;5.798;2022-10-17T01:42:54;13.80;93.70
35127;DHT22;21300;52.006;5.798;2022-10-17T01:45:28;13.80;93.80
35127;DHT22;21300;52.006;5.798;2022-10-17T01:48:00;13.80;93.70
35127;DHT22;21300;52.006;5.798;2022-10-17T01:50:40;13.80;93.70
35127;DHT22;21300;52.006;5.798;2022-10-17T01:53:19;13.80;93.80
35127;DHT22;21300;52.006;5.798;2022-10-17T01:55:48;13.80;93.80
35127;DHT22;21300;52.006;5.798;2022-10-17T02:00:44;13.80;93.80
35127;DHT22;21300;52.006;5.798;2022-10-17T02:03:14;13.80;93.80
35127;DHT22;21300;52.006;5.798;2022-10-17T02:05:42;13.80;93.80
35127;DHT22;21300;52.006;5.798;2022-10-17T02:08:08;13.80;93.80
35127;DHT22;21300;52.006;5.798;2022-10-17T02:10:36;13.80;93.90
35127;DHT22;21300;52.006;5.798;2022-10-17T02:16:24;13.80;93.90
35127;DHT22;21300;52.006;5.798;2022-10-17T02:25:06;13.80;93.90
35127;DHT22;21300;52.006;5.798;2022-10-17T02:30:44;13.80;93.90
35127;DHT22;21300;52.006;5.798;2022-10-17T02:33:19;13.80;93.90
35127;DHT22;21300;52.006;5.798;2022-10-17T02:35:50;13.80;93.90
35127;DHT22;21300;52.006;5.798;2022-10-17T02:38:17;13.80;93.90
35127;DHT22;21300;52.006;5.798;2022-10-17T02:40:45;13.80;93.90
35127;DHT22;21300;52.006;5.798;2022-10-17T02:43:14;13.80;94.00
35127;DHT22;21300;52.006;5.798;2022-10-17T02:45:40;13.80;94.00
35127;DHT22;21300;52.006;5.798;2022-10-17T02:51:11;13.80;94.00
35127;DHT22;21300;52.006;5.798;2022-10-17T02:56:24;13.80;94.00
35127;DHT22;21300;52.006;5.798;2022-10-17T02:58:56;13.80;94.00
35127;DHT22;21300;52.006;5.798;2022-10-17T03:01:22;13.80;94.00
35127;DHT22;21300;52.006;5.798;2022-10-17T03:03:48;13.80;94.00
35127;DHT22;21300;52.006;5.798;2022-10-17T03:06:14;13.80;94.00
35127;DHT22;21300;52.006;5.798;2022-10-17T03:08:40;13.80;94.00
35127;DHT22;21300;52.006;5.798;2022-10-17T03:11:06;13.80;94.00
35127;DHT22;21300;52.006;5.798;2022-10-17T03:13:31;13.80;94.00
35127;DHT22;21300;52.006;5.798;2022-10-17T03:15:57;13.80;94.00
35127;DHT22;21300;52.006;5.798;2022-10-17T03:18:23;13.80;94.00
35127;DHT22;21300;52.006;5.798;2022-10-17T03:20:48;13.80;94.00
35127;DHT22;21300;52.006;5.798;2022-10-17T03:23:14;13.80;94.00
35127;DHT22;21300;52.006;5.798;2022-10-17T03:25:40;13.80;94.00
35127;DHT22;21300;52.006;5.798;2022-10-17T03:28:05;13.80;94.00
35127;DHT22;21300;52.006;5.798;2022-10-17T03:30:32;13.80;94.00
35127;DHT22;21300;52.006;5.798;2022-10-17T03:32:58;13.80;94.00
35127;DHT22;21300;52.006;5.798;2022-10-17T03:35:25;13.80;94.00
35127;DHT22;21300;52.006;5.798;2022-10-17T03:37:51;13.80;94.00
35127;DHT22;21300;52.006;5.798;2022-10-17T03:40:17;13.80;94.00
35127;DHT22;21300;52.006;5.798;2022-10-17T03:42:43;13.80;94.00
35127;DHT22;21300;52.006;5.798;2022-10-17T03:45:09;13.80;94.00
35127;DHT22;21300;52.006;5.798;2022-10-17T03:47:34;13.80;94.10
35127;DHT22;21300;52.006;5.798;2022-10-17T03:50:00;13.80;94.40
35127;DHT22;21300;52.006;5.798;2022-10-17T03:52:25;13.80;94.00
35127;DHT22;21300;52.006;5.798;2022-10-17T03:54:51;13.80;94.00
35127;DHT22;21300;52.006;5.798;2022-10-17T03:57:17;13.80;94.00
35127;DHT22;21300;52.006;5.798;2022-10-17T03:59:43;13.80;94.10
35127;DHT22;21300;52.006;5.798;2022-10-17T04:02:09;13.70;94.00
35127;DHT22;21300;52.006;5.798;2022-10-17T04:04:35;13.80;94.10
35127;DHT22;21300;52.006;5.798;2022-10-17T04:07:00;13.80;94.10
35127;DHT22;21300;52.006;5.798;2022-10-17T04:09:26;13.80;94.00
35127;DHT22;21300;52.006;5.798;2022-10-17T04:11:52;13.80;94.00
35127;DHT22;21300;52.006;5.798;2022-10-17T04:14:17;13.80;94.00
35127;DHT22;21300;52.006;5.798;2022-10-17T04:16:43;13.70;94.00
35127;DHT22;21300;52.006;5.798;2022-10-17T04:19:11;13.80;94.00
35127;DHT22;21300;52.006;5.798;2022-10-17T04:21:37;13.80;93.90
35127;DHT22;21300;52.006;5.798;2022-10-17T04:24:03;13.80;93.90
35127;DHT22;21300;52.006;5.798;2022-10-17T04:26:29;13.80;94.00
35127;DHT22;21300;52.006;5.798;2022-10-17T04:28:55;13.80;94.00
35127;DHT22;21300;52.006;5.798;2022-10-17T04:31:21;13.80;94.00
35127;DHT22;21300;52.006;5.798;2022-10-17T04:33:48;13.80;94.00
35127;DHT22;21300;52.006;5.798;2022-10-17T04:36:16;13.80;94.00
35127;DHT22;21300;52.006;5.798;2022-10-17T04:39:00;13.80;94.00
35127;DHT22;21300;52.006;5.798;2022-10-17T04:41:27;13.80;94.00
35127;DHT22;21300;52.006;5.798;2022-10-17T04:43:53;13.80;94.30
35127;DHT22;21300;52.006;5.798;2022-10-17T04:46:19;13.80;94.30
35127;DHT22;21300;52.006;5.798;2022-10-17T04:48:45;13.80;94.00
35127;DHT22;21300;52.006;5.798;2022-10-17T04:51:13;13.80;94.00
35127;DHT22;21300;52.006;5.798;2022-10-17T04:53:40;13.80;94.00
35127;DHT22;21300;52.006;5.798;2022-10-17T04:56:18;13.80;93.90
35127;DHT22;21300;52.006;5.798;2022-10-17T04:58:44;13.80;93.90
35127;DHT22;21300;52.006;5.798;2022-10-17T05:01:13;13.80;93.90
35127;DHT22;21300;52.006;5.798;2022-10-17T05:03:40;13.80;93.90
35127;DHT22;21300;52.006;5.798;2022-10-17T05:06:07;13.80;94.00
35127;DHT22;21300;52.006;5.798;2022-10-17T05:08:33;13.80;94.00
35127;DHT22;21300;52.006;5.798;2022-10-17T05:10:59;13.80;94.00
35127;DHT22;21300;52.006;5.798;2022-10-17T05:13:25;13.80;94.00
35127;DHT22;21300;52.006;5.798;2022-10-17T05:15:51;13.80;94.00
35127;DHT22;21300;52.006;5.798;2022-10-17T05:18:16;13.80;94.00
35127;DHT22;21300;52.006;5.798;2022-10-17T05:20:42;13.80;93.90
35127;DHT22;21300;52.006;5.798;2022-10-17T05:23:07;13.80;93.90
35127;DHT22;21300;52.006;5.798;2022-10-17T05:25:33;13.80;93.90
35127;DHT22;21300;52.006;5.798;2022-10-17T05:27:59;13.90;94.30
35127;DHT22;21300;52.006;5.798;2022-10-17T05:30:24;13.80;94.00
35127;DHT22;21300;52.006;5.798;2022-10-17T05:32:53;13.80;94.30
35127;DHT22;21300;52.006;5.798;2022-10-17T05:35:20;13.90;94.00
35127;DHT22;21300;52.006;5.798;2022-10-17T05:37:46;13.80;93.90
35127;DHT22;21300;52.006;5.798;2022-10-17T05:40:12;13.90;93.90
35127;DHT22;21300;52.006;5.798;2022-10-17T05:42:38;13.80;93.90
35127;DHT22;21300;52.006;5.798;2022-10-17T05:45:04;13.90;93.90
35127;DHT22;21300;52.006;5.798;2022-10-17T05:47:30;13.90;93.90
35127;DHT22;21300;52.006;5.798;2022-10-17T05:49:56;13.90;93.80
35127;DHT22;21300;52.006;5.798;2022-10-17T05:52:21;13.90;93.80
35127;DHT22;21300;52.006;5.798;2022-10-17T05:54:47;13.90;93.90
35127;DHT22;21300;52.006;5.798;2022-10-17T05:57:12;13.90;93.90
35127;DHT22;21300;52.006;5.798;2022-10-17T05:59:38;13.90;93.90
35127;DHT22;21300;52.006;5.798;2022-10-17T06:02:04;13.90;93.80
35127;DHT22;21300;52.006;5.798;2022-10-17T06:04:29;13.90;93.80
35127;DHT22;21300;52.006;5.798;2022-10-17T06:06:55;13.90;93.90
35127;DHT22;21300;52.006;5.798;2022-10-17T06:09:22;13.90;93.80
35127;DHT22;21300;52.006;5.798;2022-10-17T06:11:47;13.90;93.80
35127;DHT22;21300;52.006;5.798;2022-10-17T06:14:13;13.90;93.80
35127;DHT22;21300;52.006;5.798;2022-10-17T06:16:39;13.90;93.80
35127;DHT22;21300;52.006;5.798;2022-10-17T06:19:04;13.90;96.00
35127;DHT22;21300;52.006;5.798;2022-10-17T06:21:30;14.00;95.70
35127;DHT22;21300;52.006;5.798;2022-10-17T06:23:59;13.90;95.40
35127;DHT22;21300;52.006;5.798;2022-10-17T06:26:24;13.90;95.20
35127;DHT22;21300;52.006;5.798;2022-10-17T06:28:50;13.90;95.40
35127;DHT22;21300;52.006;5.798;2022-10-17T06:31:16;13.90;94.80
35127;DHT22;21300;52.006;5.798;2022-10-17T06:33:42;14.00;96.40
35127;DHT22;21300;52.006;5.798;2022-10-17T06:36:10;14.00;96.20
35127;DHT22;21300;52.006;5.798;2022-10-17T06:38:36;14.00;95.80
35127;DHT22;21300;52.006;5.798;2022-10-17T06:41:04;14.00;95.60
35127;DHT22;21300;52.006;5.798;2022-10-17T06:43:33;14.00;95.40
35127;DHT22;21300;52.006;5.798;2022-10-17T06:45:58;14.00;95.20
35127;DHT22;21300;52.006;5.798;2022-10-17T06:48:24;14.00;95.20
35127;DHT22;21300;52.006;5.798;2022-10-17T06:50:49;14.00;95.10
35127;DHT22;21300;52.006;5.798;2022-10-17T06:53:15;14.00;95.00
35127;DHT22;21300;52.006;5.798;2022-10-17T06:55:41;14.00;95.00
35127;DHT22;21300;52.006;5.798;2022-10-17T06:58:07;14.00;94.90
35127;DHT22;21300;52.006;5.798;2022-10-17T07:00:32;14.00;94.90
35127;DHT22;21300;52.006;5.798;2022-10-17T07:02:58;14.00;94.90
35127;DHT22;21300;52.006;5.798;2022-10-17T07:05:24;14.00;94.80
35127;DHT22;21300;52.006;5.798;2022-10-17T07:07:49;14.00;94.80
35127;DHT22;21300;52.006;5.798;2022-10-17T07:10:15;14.00;94.70
35127;DHT22;21300;52.006;5.798;2022-10-17T07:12:40;14.00;94.70
35127;DHT22;21300;52.006;5.798;2022-10-17T07:15:07;14.00;94.70
35127;DHT22;21300;52.006;5.798;2022-10-17T07:17:32;14.00;94.60
35127;DHT22;21300;52.006;5.798;2022-10-17T07:19:58;14.00;94.60
35127;DHT22;21300;52.006;5.798;2022-10-17T07:22:23;14.00;94.60
35127;DHT22;21300;52.006;5.798;2022-10-17T07:24:49;14.00;94.60
35127;DHT22;21300;52.006;5.798;2022-10-17T07:27:15;14.00;94.50
35127;DHT22;21300;52.006;5.798;2022-10-17T07:29:40;14.00;94.60
35127;DHT22;21300;52.006;5.798;2022-10-17T07:32:06;14.00;94.60
35127;DHT22;21300;52.006;5.798;2022-10-17T07:34:34;14.00;94.50
35127;DHT22;21300;52.006;5.798;2022-10-17T07:37:00;14.00;94.50
35127;DHT22;21300;52.006;5.798;2022-10-17T07:39:25;14.00;94.50
35127;DHT22;21300;52.006;5.798;2022-10-17T07:41:51;14.00;94.50
35127;DHT22;21300;52.006;5.798;2022-10-17T07:44:17;14.00;94.50
35127;DHT22;21300;52.006;5.798;2022-10-17T07:46:42;14.10;94.50
35127;DHT22;21300;52.006;5.798;2022-10-17T07:49:08;14.00;94.40
35127;DHT22;21300;52.006;5.798;2022-10-17T07:51:33;14.10;94.50
35127;DHT22;21300;52.006;5.798;2022-10-17T07:53:59;14.10;94.40
35127;DHT22;21300;52.006;5.798;2022-10-17T07:56:25;14.10;94.40
35127;DHT22;21300;52.006;5.798;2022-10-17T07:58:51;14.10;94.40
35127;DHT22;21300;52.006;5.798;2022-10-17T08:01:17;14.10;94.40
35127;DHT22;21300;52.006;5.798;2022-10-17T08:03:44;14.10;94.40
35127;DHT22;21300;52.006;5.798;2022-10-17T08:06:10;14.10;94.40
35127;DHT22;21300;52.006;5.798;2022-10-17T08:08:36;14.20;94.40
35127;DHT22;21300;52.006;5.798;2022-10-17T08:11:04;14.10;94.40
35127;DHT22;21300;52.006;5.798;2022-10-17T08:13:31;14.20;94.40
35127;DHT22;21300;52.006;5.798;2022-10-17T08:16:06;14.20;94.40
35127;DHT22;21300;52.006;5.798;2022-10-17T08:18:33;14.20;94.40
35127;DHT22;21300;52.006;5.798;2022-10-17T08:20:59;14.20;94.40
35127;DHT22;21300;52.006;5.798;2022-10-17T08:23:26;14.20;94.40
35127;DHT22;21300;52.006;5.798;2022-10-17T08:25:52;14.20;94.40
35127;DHT22;21300;52.006;5.798;2022-10-17T08:28:17;14.20;94.40
35127;DHT22;21300;52.006;5.798;2022-10-17T08:30:43;14.20;94.70
35127;DHT22;21300;52.006;5.798;2022-10-17T08:33:08;14.20;94.40
35127;DHT22;21300;52.006;5.798;2022-10-17T08:35:34;14.20;94.40
35127;DHT22;21300;52.006;5.798;2022-10-17T08:38:00;14.20;94.30
35127;DHT22;21300;52.006;5.798;2022-10-17T08:40:28;14.30;94.30
35127;DHT22;21300;52.006;5.798;2022-10-17T08:45:46;14.30;94.30
35127;DHT22;21300;52.006;5.798;2022-10-17T08:48:17;14.30;94.20
35127;DHT22;21300;52.006;5.798;2022-10-17T08:51:02;14.30;94.20
35127;DHT22;21300;52.006;5.798;2022-10-17T08:56:17;14.30;94.20
35127;DHT22;21300;52.006;5.798;2022-10-17T08:58:42;14.30;94.10
35127;DHT22;21300;52.006;5.798;2022-10-17T09:01:30;14.30;94.10
35127;DHT22;21300;52.006;5.798;2022-10-17T09:09:20;14.30;94.10
35127;DHT22;21300;52.006;5.798;2022-10-17T09:14:43;14.40;94.10
35127;DHT22;21300;52.006;5.798;2022-10-17T09:20:19;14.40;94.00
35127;DHT22;21300;52.006;5.798;2022-10-17T09:22:58;14.40;94.00
35127;DHT22;21300;52.006;5.798;2022-10-17T09:31:18;14.40;94.00
35127;DHT22;21300;52.006;5.798;2022-10-17T09:33:46;14.40;94.00
35127;DHT22;21300;52.006;5.798;2022-10-17T09:39:03;14.40;93.90
35127;DHT22;21300;52.006;5.798;2022-10-17T09:44:18;14.40;93.90
35127;DHT22;21300;52.006;5.798;2022-10-17T09:50:20;14.40;93.90
35127;DHT22;21300;52.006;5.798;2022-10-17T09:52:52;14.40;93.90
35127;DHT22;21300;52.006;5.798;2022-10-17T10:08:27;14.50;93.90
35127;DHT22;21300;52.006;5.798;2022-10-17T10:10:59;14.50;94.00
35127;DHT22;21300;52.006;5.798;2022-10-17T10:13:26;14.50;94.00
35127;DHT22;21300;52.006;5.798;2022-10-17T10:15:52;14.50;94.00
35127;DHT22;21300;52.006;5.798;2022-10-17T10:21:17;14.60;94.00
35127;DHT22;21300;52.006;5.798;2022-10-17T10:24:03;14.50;94.00
35127;DHT22;21300;52.006;5.798;2022-10-17T10:29:32;14.60;93.90
35127;DHT22;21300;52.006;5.798;2022-10-17T10:34:55;14.60;94.20
35127;DHT22;21300;52.006;5.798;2022-10-17T10:37:31;14.60;94.20
35127;DHT22;21300;52.006;5.798;2022-10-17T10:40:06;14.60;94.20
35127;DHT22;21300;52.006;5.798;2022-10-17T10:42:36;14.60;94.20
35127;DHT22;21300;52.006;5.798;2022-10-17T10:45:24;14.60;94.20
35127;DHT22;21300;52.006;5.798;2022-10-17T10:47:55;14.70;94.20
35127;DHT22;21300;52.006;5.798;2022-10-17T10:50:41;14.70;94.20
35127;DHT22;21300;52.006;5.798;2022-10-17T10:55:49;14.70;94.20
35127;DHT22;21300;52.006;5.798;2022-10-17T10:58:38;14.70;94.20
35127;DHT22;21300;52.006;5.798;2022-10-17T11:04:08;14.70;94.10
35127;DHT22;21300;52.006;5.798;2022-10-17T11:06:38;14.70;94.10
35127;DHT22;21300;52.006;5.798;2022-10-17T11:11:41;14.80;94.10
35127;DHT22;21300;52.006;5.798;2022-10-17T11:14:31;14.70;94.10
35127;DHT22;21300;52.006;5.798;2022-10-17T11:19:44;14.70;94.00
35127;DHT22;21300;52.006;5.798;2022-10-17T11:22:23;14.80;94.00
35127;DHT22;21300;52.006;5.798;2022-10-17T11:24:55;14.80;94.00
35127;DHT22;21300;52.006;5.798;2022-10-17T11:27:25;14.80;94.00
35127;DHT22;21300;52.006;5.798;2022-10-17T11:29:52;14.80;94.00
35127;DHT22;21300;52.006;5.798;2022-10-17T11:35:22;14.80;93.90
35127;DHT22;21300;52.006;5.798;2022-10-17T11:37:55;14.80;93.90
35127;DHT22;21300;52.006;5.798;2022-10-17T11:40:32;14.80;93.90
35127;DHT22;21300;52.006;5.798;2022-10-17T11:45:43;14.90;93.90
35127;DHT22;21300;52.006;5.798;2022-10-17T11:48:20;14.80;93.80
35127;DHT22;21300;52.006;5.798;2022-10-17T11:50:59;14.90;93.80
35127;DHT22;21300;52.006;5.798;2022-10-17T11:53:33;14.90;93.80
35127;DHT22;21300;52.006;5.798;2022-10-17T11:56:07;14.90;93.80
35127;DHT22;21300;52.006;5.798;2022-10-17T12:01:34;14.90;93.80
35127;DHT22;21300;52.006;5.798;2022-10-17T12:12:35;15.00;93.70
35127;DHT22;21300;52.006;5.798;2022-10-17T12:18:00;15.00;93.60
35127;DHT22;21300;52.006;5.798;2022-10-17T12:20:34;15.00;93.60
35127;DHT22;21300;52.006;5.798;2022-10-17T12:26:24;15.10;93.60
35127;DHT22;21300;52.006;5.798;2022-10-17T12:28:32;15.00;93.50
35127;DHT22;21300;52.006;5.798;2022-10-17T12:31:10;15.10;93.50
35127;DHT22;21300;52.006;5.798;2022-10-17T12:33:48;15.10;93.50
35127;DHT22;21300;52.006;5.798;2022-10-17T12:54:55;15.20;93.90
35127;DHT22;21300;52.006;5.798;2022-10-17T13:00:03;15.30;93.90
35127;DHT22;21300;52.006;5.798;2022-10-17T13:02:37;15.30;93.90
35127;DHT22;21300;52.006;5.798;2022-10-17T13:05:07;15.30;96.20
35127;DHT22;21300;52.006;5.798;2022-10-17T13:07:54;15.30;94.90
35127;DHT22;21300;52.006;5.798;2022-10-17T13:10:27;15.40;94.90
35127;DHT22;21300;52.006;5.798;2022-10-17T13:15:29;15.40;94.60
35127;DHT22;21300;52.006;5.798;2022-10-17T13:17:57;15.40;94.50
35127;DHT22;21300;52.006;5.798;2022-10-17T13:20:25;15.40;94.40
35127;DHT22;21300;52.006;5.798;2022-10-17T13:22:53;15.40;94.40
35127;DHT22;21300;52.006;5.798;2022-10-17T13:25:21;15.50;94.30
35127;DHT22;21300;52.006;5.798;2022-10-17T13:27:47;15.50;94.30
35127;DHT22;21300;52.006;5.798;2022-10-17T13:30:34;15.40;94.20
35127;DHT22;21300;52.006;5.798;2022-10-17T13:33:00;15.50;94.20
35127;DHT22;21300;52.006;5.798;2022-10-17T13:35:30;15.40;94.10
35127;DHT22;21300;52.006;5.798;2022-10-17T13:37:56;15.50;94.10
35127;DHT22;21300;52.006;5.798;2022-10-17T13:40:27;15.50;94.10
35127;DHT22;21300;52.006;5.798;2022-10-17T13:42:55;15.50;94.00
35127;DHT22;21300;52.006;5.798;2022-10-17T13:45:32;15.50;94.00
35127;DHT22;21300;52.006;5.798;2022-10-17T13:48:03;15.50;94.00
35127;DHT22;21300;52.006;5.798;2022-10-17T13:50:34;15.50;93.90
35127;DHT22;21300;52.006;5.798;2022-10-17T13:53:25;15.50;93.90
35127;DHT22;21300;52.006;5.798;2022-10-17T13:56:05;15.50;93.80
35127;DHT22;21300;52.006;5.798;2022-10-17T13:58:39;15.50;93.80
35127;DHT22;21300;52.006;5.798;2022-10-17T14:01:06;15.50;93.80
35127;DHT22;21300;52.006;5.798;2022-10-17T14:03:32;15.50;93.70
35127;DHT22;21300;52.006;5.798;2022-10-17T14:06:02;15.50;93.90
35127;DHT22;21300;52.006;5.798;2022-10-17T14:08:30;15.50;93.70
35127;DHT22;21300;52.006;5.798;2022-10-17T14:10:57;15.50;93.70
35127;DHT22;21300;52.006;5.798;2022-10-17T14:13:26;15.60;94.70
35127;DHT22;21300;52.006;5.798;2022-10-17T14:15:54;15.60;94.60
35127;DHT22;21300;52.006;5.798;2022-10-17T14:18:24;15.60;94.40
35127;DHT22;21300;52.006;5.798;2022-10-17T14:20:51;15.70;94.20
35127;DHT22;21300;52.006;5.798;2022-10-17T14:23:32;15.70;94.30
35127;DHT22;21300;52.006;5.798;2022-10-17T14:26:13;15.70;94.30
35127;DHT22;21300;52.006;5.798;2022-10-17T14:28:41;15.70;94.80
35127;DHT22;21300;52.006;5.798;2022-10-17T14:31:20;15.70;94.50
35127;DHT22;21300;52.006;5.798;2022-10-17T14:33:47;15.70;94.50
35127;DHT22;21300;52.006;5.798;2022-10-17T14:36:14;15.70;94.50
35127;DHT22;21300;52.006;5.798;2022-10-17T14:38:45;15.70;94.50
35127;DHT22;21300;52.006;5.798;2022-10-17T14:41:24;15.70;94.50
35127;DHT22;21300;52.006;5.798;2022-10-17T14:44:07;15.70;94.40
35127;DHT22;21300;52.006;5.798;2022-10-17T14:46:44;15.70;94.40
35127;DHT22;21300;52.006;5.798;2022-10-17T14:49:19;15.70;94.40
35127;DHT22;21300;52.006;5.798;2022-10-17T14:54:40;15.80;94.40
35127;DHT22;21300;52.006;5.798;2022-10-17T14:57:56;15.80;94.30
35127;DHT22;21300;52.006;5.798;2022-10-17T15:00:03;15.80;94.20
35127;DHT22;21300;52.006;5.798;2022-10-17T15:02:29;15.80;94.20
35127;DHT22;21300;52.006;5.798;2022-10-17T15:04:54;15.80;94.20
35127;DHT22;21300;52.006;5.798;2022-10-17T15:07:21;15.80;94.10
35127;DHT22;21300;52.006;5.798;2022-10-17T15:09:48;15.80;94.00
35127;DHT22;21300;52.006;5.798;2022-10-17T15:12:17;15.80;94.10
35127;DHT22;21300;52.006;5.798;2022-10-17T15:14:43;15.80;94.10
35127;DHT22;21300;52.006;5.798;2022-10-17T15:17:15;15.80;94.00
35127;DHT22;21300;52.006;5.798;2022-10-17T15:19:43;15.80;93.90
35127;DHT22;21300;52.006;5.798;2022-10-17T15:22:08;15.80;93.90
35127;DHT22;21300;52.006;5.798;2022-10-17T15:24:34;15.80;93.90
35127;DHT22;21300;52.006;5.798;2022-10-17T15:27:00;15.80;93.80
35127;DHT22;21300;52.006;5.798;2022-10-17T15:29:25;15.80;93.80
35127;DHT22;21300;52.006;5.798;2022-10-17T15:31:51;15.90;93.90
35127;DHT22;21300;52.006;5.798;2022-10-17T15:34:17;15.90;93.80
35127;DHT22;21300;52.006;5.798;2022-10-17T15:36:48;15.80;93.80
35127;DHT22;21300;52.006;5.798;2022-10-17T15:39:14;15.90;93.80
35127;DHT22;21300;52.006;5.798;2022-10-17T15:41:40;15.90;93.70
35127;DHT22;21300;52.006;5.798;2022-10-17T15:44:06;15.90;93.70
35127;DHT22;21300;52.006;5.798;2022-10-17T15:46:33;15.90;93.70
35127;DHT22;21300;52.006;5.798;2022-10-17T15:49:05;15.90;93.60
35127;DHT22;21300;52.006;5.798;2022-10-17T15:51:32;15.90;93.60
35127;DHT22;21300;52.006;5.798;2022-10-17T15:53:58;15.90;93.60
35127;DHT22;21300;52.006;5.798;2022-10-17T15:56:34;15.90;93.50
35127;DHT22;21300;52.006;5.798;2022-10-17T15:59:05;15.90;93.50
35127;DHT22;21300;52.006;5.798;2022-10-17T16:01:32;15.90;93.50
35127;DHT22;21300;52.006;5.798;2022-10-17T16:03:59;15.90;93.60
35127;DHT22;21300;52.006;5.798;2022-10-17T16:06:25;15.90;93.50
35127;DHT22;21300;52.006;5.798;2022-10-17T16:08:51;15.90;93.50
35127;DHT22;21300;52.006;5.798;2022-10-17T16:11:30;15.90;93.50
35127;DHT22;21300;52.006;5.798;2022-10-17T16:13:59;15.90;93.60
35127;DHT22;21300;52.006;5.798;2022-10-17T16:16:25;15.90;93.50
35127;DHT22;21300;52.006;5.798;2022-10-17T16:18:50;15.90;93.50
35127;DHT22;21300;52.006;5.798;2022-10-17T16:21:16;15.90;93.50
35127;DHT22;21300;52.006;5.798;2022-10-17T16:23:44;15.90;93.50
35127;DHT22;21300;52.006;5.798;2022-10-17T16:26:10;15.90;93.50
35127;DHT22;21300;52.006;5.798;2022-10-17T16:28:39;15.90;93.50
35127;DHT22;21300;52.006;5.798;2022-10-17T16:31:19;15.90;93.40
35127;DHT22;21300;52.006;5.798;2022-10-17T16:33:45;15.90;93.50
35127;DHT22;21300;52.006;5.798;2022-10-17T16:36:11;15.90;93.50
35127;DHT22;21300;52.006;5.798;2022-10-17T16:38:37;15.90;93.50
35127;DHT22;21300;52.006;5.798;2022-10-17T16:41:02;15.90;93.50
35127;DHT22;21300;52.006;5.798;2022-10-17T16:43:28;15.90;93.50
35127;DHT22;21300;52.006;5.798;2022-10-17T16:46:02;15.90;93.50
35127;DHT22;21300;52.006;5.798;2022-10-17T16:48:28;15.90;93.40
35127;DHT22;21300;52.006;5.798;2022-10-17T16:50:54;15.80;93.40
35127;DHT22;21300;52.006;5.798;2022-10-17T16:53:19;15.90;93.40
35127;DHT22;21300;52.006;5.798;2022-10-17T16:58:29;15.80;93.40
35127;DHT22;21300;52.006;5.798;2022-10-17T17:01:04;15.80;93.40
35127;DHT22;21300;52.006;5.798;2022-10-17T17:03:34;15.80;93.40
35127;DHT22;21300;52.006;5.798;2022-10-17T17:06:00;15.80;93.40
35127;DHT22;21300;52.006;5.798;2022-10-17T17:08:25;15.80;93.50
35127;DHT22;21300;52.006;5.798;2022-10-17T17:10:51;15.80;93.50
35127;DHT22;21300;52.006;5.798;2022-10-17T17:13:19;15.80;93.50
35127;DHT22;21300;52.006;5.798;2022-10-17T17:15:44;15.80;93.50
35127;DHT22;21300;52.006;5.798;2022-10-17T17:18:10;15.80;93.40
35127;DHT22;21300;52.006;5.798;2022-10-17T17:20:38;15.80;93.40
35127;DHT22;21300;52.006;5.798;2022-10-17T17:23:05;15.80;93.40
35127;DHT22;21300;52.006;5.798;2022-10-17T17:25:33;15.80;93.40
35127;DHT22;21300;52.006;5.798;2022-10-17T17:28:01;15.80;93.40
35127;DHT22;21300;52.006;5.798;2022-10-17T17:30:27;15.70;93.50
35127;DHT22;21300;52.006;5.798;2022-10-17T17:32:54;15.80;93.50
35127;DHT22;21300;52.006;5.798;2022-10-17T17:35:20;15.70;93.40
35127;DHT22;21300;52.006;5.798;2022-10-17T17:37:45;15.70;93.80
35127;DHT22;21300;52.006;5.798;2022-10-17T17:40:11;15.80;93.90
35127;DHT22;21300;52.006;5.798;2022-10-17T17:42:36;15.80;93.60
35127;DHT22;21300;52.006;5.798;2022-10-17T17:45:03;15.80;93.60
35127;DHT22;21300;52.006;5.798;2022-10-17T17:47:28;15.80;93.60
35127;DHT22;21300;52.006;5.798;2022-10-17T17:49:54;15.70;93.60
35127;DHT22;21300;52.006;5.798;2022-10-17T17:52:19;15.80;93.60
35127;DHT22;21300;52.006;5.798;2022-10-17T17:54:45;15.80;93.70
35127;DHT22;21300;52.006;5.798;2022-10-17T17:57:11;15.80;93.70
35127;DHT22;21300;52.006;5.798;2022-10-17T17:59:37;15.70;93.80
35127;DHT22;21300;52.006;5.798;2022-10-17T18:02:03;15.70;93.80
35127;DHT22;21300;52.006;5.798;2022-10-17T18:04:31;15.70;93.80
35127;DHT22;21300;52.006;5.798;2022-10-17T18:06:56;15.70;93.80
35127;DHT22;21300;52.006;5.798;2022-10-17T18:09:22;15.70;93.80
35127;DHT22;21300;52.006;5.798;2022-10-17T18:11:48;15.70;93.80
35127;DHT22;21300;52.006;5.798;2022-10-17T18:14:14;15.70;93.80
35127;DHT22;21300;52.006;5.798;2022-10-17T18:16:40;15.70;93.80
35127;DHT22;21300;52.006;5.798;2022-10-17T18:19:07;15.70;93.80
35127;DHT22;21300;52.006;5.798;2022-10-17T18:21:36;15.70;93.80